Time;durP1;ratioP1;P1;durP2;ratioP2;P2;SDS_P1;SDS_P2;PMS_P1;PMS_P2;Temp;Humidity;BMP_temperature;BMP_pressure;BME280_temperature;BME280_humidity;BME280_pressure;Samples;Min_cycle;Max_cycle;Signal;HPM_P1;HPM_P2
2023/12/29 00:00:06;;;;;;;4.20;1.25;;;12.10;99.90;;;;;;5114596;28;20032;-68
2023/12/29 00:02:31;;;;;;;5.45;1.10;;;12.10;99.90;;;;;;5114430;28;20059;-68
2023/12/29 00:04:57;;;;;;;5.03;1.60;;;12.10;99.90;;;;;;5114533;28;20056;-69
2023/12/29 00:07:23;;;;;;;5.15;1.23;;;12.10;99.90;;;;;;5114769;28;20073;-67
2023/12/29 00:09:48;;;;;;;9.77;1.38;;;12.10;99.90;;;;;;5114758;28;20115;-68
2023/12/29 00:12:14;;;;;;;10.80;1.55;;;12.20;99.90;;;;;;5114619;28;20043;-67
2023/12/29 00:14:40;;;;;;;3.97;1.45;;;12.20;99.90;;;;;;5114582;28;20044;-68
2023/12/29 00:17:06;;;;;;;4.22;1.10;;;12.20;99.90;;;;;;5114636;28;20024;-68
2023/12/29 00:19:31;;;;;;;7.32;1.58;;;12.20;99.90;;;;;;5114534;28;20030;-68
2023/12/29 00:21:59;;;;;;;8.68;1.52;;;12.10;99.90;;;;;;5114473;28;20082;-67
2023/12/29 00:24:25;;;;;;;7.60;1.35;;;12.20;99.90;;;;;;5114367;28;20012;-68
2023/12/29 00:26:51;;;;;;;5.70;1.08;;;12.20;99.90;;;;;;5114391;28;20024;-67
2023/12/29 00:29:17;;;;;;;5.63;0.95;;;12.20;99.90;;;;;;5114239;28;20020;-66
2023/12/29 00:31:43;;;;;;;5.28;1.30;;;12.10;99.90;;;;;;5114069;28;20099;-67
2023/12/29 00:34:09;;;;;;;5.25;1.50;;;12.10;99.90;;;;;;5114266;28;20031;-67
2023/12/29 00:36:34;;;;;;;5.97;1.48;;;12.10;99.90;;;;;;5114298;28;20089;-66
2023/12/29 00:39:00;;;;;;;8.75;1.33;;;12.10;99.90;;;;;;5114238;28;20073;-67
2023/12/29 00:41:25;;;;;;;6.25;1.45;;;12.00;99.90;;;;;;5114180;28;20020;-67
2023/12/29 00:43:51;;;;;;;8.88;2.38;;;11.90;99.90;;;;;;5114122;28;20028;-67
2023/12/29 00:46:16;;;;;;;6.43;1.45;;;11.80;99.90;;;;;;5114005;28;20054;-67
2023/12/29 00:48:42;;;;;;;9.60;1.60;;;11.80;99.90;;;;;;5113841;28;20028;-67
2023/12/29 00:51:08;;;;;;;7.75;1.23;;;11.70;99.90;;;;;;5114016;28;20041;-68
2023/12/29 00:53:36;;;;;;;4.90;1.10;;;11.60;99.90;;;;;;5113884;28;20036;-67
2023/12/29 00:56:02;;;;;;;9.15;1.75;;;11.60;99.90;;;;;;5113878;28;20024;-67
2023/12/29 00:58:28;;;;;;;5.95;1.48;;;11.50;99.90;;;;;;5113790;28;20031;-67
2023/12/29 01:00:54;;;;;;;3.83;1.10;;;11.50;99.90;;;;;;5113547;28;20393;-66
2023/12/29 01:03:20;;;;;;;3.47;1.50;;;11.50;99.90;;;;;;5112385;28;20036;-67
2023/12/29 01:05:46;;;;;;;6.97;1.40;;;11.50;99.90;;;;;;5112482;28;20097;-67
2023/12/29 01:08:12;;;;;;;4.05;1.05;;;11.50;99.90;;;;;;5113680;28;20038;-67
2023/12/29 01:10:37;;;;;;;3.83;1.38;;;11.50;99.90;;;;;;5112835;28;20063;-68
2023/12/29 01:13:03;;;;;;;4.47;1.35;;;11.40;99.90;;;;;;5113550;28;20085;-67
2023/12/29 01:15:29;;;;;;;9.35;1.70;;;11.50;99.90;;;;;;5113494;28;20105;-67
2023/12/29 01:17:54;;;;;;;7.60;1.73;;;11.40;99.90;;;;;;5113405;28;20036;-67
2023/12/29 01:20:20;;;;;;;6.85;1.75;;;11.40;99.90;;;;;;5113328;28;20024;-67
2023/12/29 01:22:46;;;;;;;4.93;1.27;;;11.30;99.90;;;;;;5113353;28;20036;-66
2023/12/29 01:25:11;;;;;;;6.18;1.35;;;11.40;99.90;;;;;;5113266;28;20032;-69
2023/12/29 01:27:37;;;;;;;7.15;1.30;;;11.30;99.90;;;;;;5112202;28;20024;-68
2023/12/29 01:30:03;;;;;;;9.18;1.85;;;11.40;99.90;;;;;;5113227;28;20028;-67
2023/12/29 01:32:28;;;;;;;4.60;1.30;;;11.40;99.90;;;;;;5112888;28;20051;-67
2023/12/29 01:34:54;;;;;;;5.68;1.48;;;11.40;99.90;;;;;;5113170;28;20032;-67
2023/12/29 01:37:19;;;;;;;4.10;1.40;;;11.30;99.90;;;;;;5113102;28;20098;-68
2023/12/29 01:39:45;;;;;;;5.75;1.42;;;11.20;99.90;;;;;;5113028;28;20032;-67
2023/12/29 01:42:11;;;;;;;5.50;1.48;;;11.10;99.90;;;;;;5112934;28;20034;-67
2023/12/29 01:44:37;;;;;;;6.47;1.30;;;11.10;99.90;;;;;;5112894;28;20022;-67
2023/12/29 01:47:10;;;;;;;6.75;1.20;;;11.00;99.90;;;;;;5112898;28;20080;-67
2023/12/29 01:49:36;;;;;;;5.43;1.30;;;11.00;99.90;;;;;;5112880;28;20016;-67
2023/12/29 01:52:03;;;;;;;3.30;1.20;;;10.90;99.90;;;;;;5112842;28;20036;-67
2023/12/29 01:54:34;;;;;;;3.33;0.65;;;10.80;99.90;;;;;;5112881;28;20102;-67
2023/12/29 01:57:02;;;;;;;6.85;1.48;;;10.80;99.90;;;;;;5112670;28;20021;-67
2023/12/29 01:59:29;;;;;;;1.77;1.02;;;10.80;99.90;;;;;;5112735;28;20090;-67
2023/12/29 02:01:55;;;;;;;6.63;1.35;;;10.70;99.90;;;;;;5112446;28;20020;-67
2023/12/29 02:04:24;;;;;;;4.15;1.30;;;10.70;99.90;;;;;;5112502;28;20063;-67
2023/12/29 02:06:49;;;;;;;4.95;1.50;;;10.70;99.90;;;;;;5112616;28;20020;-66
2023/12/29 02:09:17;;;;;;;4.32;1.35;;;10.70;99.90;;;;;;5112495;28;20050;-67
2023/12/29 02:11:44;;;;;;;4.72;1.45;;;10.70;99.90;;;;;;5112549;28;20027;-67
2023/12/29 02:14:10;;;;;;;8.25;1.50;;;10.70;99.90;;;;;;5112518;28;20035;-67
2023/12/29 02:16:58;;;;;;;4.30;1.35;;;10.70;99.90;;;;;;5112498;28;20023;-67
2023/12/29 02:19:46;;;;;;;7.03;1.33;;;10.70;99.90;;;;;;5112511;28;20022;-68
2023/12/29 02:22:12;;;;;;;7.10;1.38;;;10.70;99.90;;;;;;5112387;28;20050;-68
2023/12/29 02:24:39;;;;;;;6.53;1.13;;;10.70;99.90;;;;;;5112336;28;20084;-67
2023/12/29 02:27:22;;;;;;;3.85;1.20;;;10.70;99.90;;;;;;5112354;28;20028;-68
2023/12/29 02:30:20;;;;;;;5.53;1.30;;;10.70;99.90;;;;;;5112424;28;20055;-67
2023/12/29 02:32:47;;;;;;;7.18;1.35;;;10.70;99.90;;;;;;5112109;28;20075;-67
2023/12/29 02:35:18;;;;;;;4.47;1.33;;;10.70;99.90;;;;;;5112400;28;20025;-68
2023/12/29 02:37:43;;;;;;;7.20;1.50;;;10.70;99.90;;;;;;5112330;28;20027;-68
2023/12/29 02:40:10;;;;;;;5.97;1.35;;;10.70;99.90;;;;;;5112329;28;20016;-67
2023/12/29 02:42:35;;;;;;;11.07;1.60;;;10.70;99.90;;;;;;5112279;28;20024;-67
2023/12/29 02:45:01;;;;;;;6.78;1.60;;;10.70;99.90;;;;;;5112207;28;20024;-67
2023/12/29 02:47:27;;;;;;;6.90;1.13;;;10.80;99.90;;;;;;5112165;28;20044;-68
2023/12/29 02:49:54;;;;;;;5.15;1.30;;;10.80;99.90;;;;;;5112284;28;20036;-67
2023/12/29 02:52:20;;;;;;;10.60;1.60;;;10.80;99.90;;;;;;5112168;28;20039;-67
2023/12/29 02:54:45;;;;;;;7.05;2.17;;;10.80;99.90;;;;;;5112174;28;20062;-68
2023/12/29 02:57:11;;;;;;;5.70;1.73;;;10.80;99.90;;;;;;5112052;28;20032;-67
2023/12/29 02:59:37;;;;;;;7.05;1.52;;;10.80;99.90;;;;;;5112148;28;20031;-68
2023/12/29 03:02:03;;;;;;;6.63;2.15;;;10.90;99.90;;;;;;5111800;28;20483;-67
2023/12/29 03:04:29;;;;;;;4.72;1.33;;;10.90;99.90;;;;;;5111793;28;20051;-68
2023/12/29 03:06:55;;;;;;;6.95;1.10;;;10.90;99.90;;;;;;5111943;28;20028;-67
2023/12/29 03:09:20;;;;;;;4.07;1.20;;;11.00;99.90;;;;;;5112057;28;20024;-66
2023/12/29 03:11:46;;;;;;;6.28;0.80;;;11.00;99.90;;;;;;5111973;28;20036;-67
2023/12/29 03:14:11;;;;;;;6.30;1.88;;;11.10;99.90;;;;;;5112048;28;20028;-67
2023/12/29 03:16:37;;;;;;;5.18;1.10;;;11.10;99.90;;;;;;5111968;28;20039;-68
2023/12/29 03:19:02;;;;;;;6.43;1.00;;;11.10;99.90;;;;;;5111882;28;20032;-67
2023/12/29 03:21:28;;;;;;;3.38;1.00;;;11.20;99.90;;;;;;5111750;28;20089;-67
2023/12/29 03:23:54;;;;;;;7.82;1.08;;;11.30;99.90;;;;;;5111897;28;20281;-67
2023/12/29 03:26:19;;;;;;;5.70;1.27;;;11.30;99.90;;;;;;5111850;28;20024;-67
2023/12/29 03:28:45;;;;;;;8.52;1.35;;;11.30;99.90;;;;;;5111824;28;20036;-68
2023/12/29 03:31:10;;;;;;;4.47;1.00;;;11.30;99.90;;;;;;5111632;28;20030;-67
2023/12/29 03:33:36;;;;;;;2.40;0.95;;;11.30;99.90;;;;;;5113010;28;20016;-68
2023/12/29 03:36:02;;;;;;;4.35;1.13;;;11.30;99.90;;;;;;5115547;28;20588;-70
2023/12/29 03:38:27;;;;;;;7.43;1.35;;;11.30;99.90;;;;;;5115396;28;20031;-67
2023/12/29 03:40:53;;;;;;;5.55;1.27;;;11.30;99.90;;;;;;5115362;28;20028;-69
2023/12/29 03:43:18;;;;;;;6.45;1.58;;;11.40;99.90;;;;;;5115275;28;20020;-67
2023/12/29 03:45:44;;;;;;;10.48;1.90;;;11.40;99.90;;;;;;5115061;28;20032;-67
2023/12/29 03:48:09;;;;;;;4.15;0.98;;;11.30;99.90;;;;;;5115238;28;20130;-68
2023/12/29 03:50:36;;;;;;;4.55;1.48;;;11.30;99.90;;;;;;5115140;28;20016;-67
2023/12/29 03:53:01;;;;;;;6.10;1.30;;;11.40;99.90;;;;;;5115241;28;20027;-67
2023/12/29 03:55:27;;;;;;;10.40;1.52;;;11.40;99.90;;;;;;5115053;28;20031;-68
2023/12/29 03:57:52;;;;;;;7.85;1.38;;;11.40;99.90;;;;;;5114875;28;20051;-67
2023/12/29 04:00:18;;;;;;;2.85;1.33;;;11.40;99.90;;;;;;5114846;28;20039;-68
2023/12/29 04:02:44;;;;;;;8.82;1.30;;;11.30;99.90;;;;;;5114633;28;20028;-67
2023/12/29 04:05:10;;;;;;;7.18;1.42;;;11.40;99.90;;;;;;5114548;28;20055;-67
2023/12/29 04:07:36;;;;;;;7.68;1.42;;;11.30;99.90;;;;;;5114919;28;20054;-68
2023/12/29 04:10:03;;;;;;;6.03;1.52;;;11.40;99.90;;;;;;5114829;28;20027;-68
2023/12/29 04:12:29;;;;;;;6.88;1.27;;;11.40;99.90;;;;;;5114727;28;20059;-67
2023/12/29 04:14:54;;;;;;;7.72;1.50;;;11.40;99.90;;;;;;5114687;28;20077;-68
2023/12/29 04:17:20;;;;;;;6.75;1.23;;;11.40;99.90;;;;;;5114572;28;20020;-67
2023/12/29 04:19:45;;;;;;;5.65;1.25;;;11.40;99.90;;;;;;5114485;28;20514;-67
2023/12/29 04:22:11;;;;;;;10.43;1.60;;;11.40;99.90;;;;;;5114537;28;20020;-68
2023/12/29 04:24:40;;;;;;;9.52;1.50;;;11.50;99.90;;;;;;5114479;28;20114;-68
2023/12/29 04:27:05;;;;;;;8.68;1.30;;;11.50;99.90;;;;;;5114352;28;20021;-68
2023/12/29 04:29:31;;;;;;;3.78;1.42;;;11.50;99.90;;;;;;5114312;28;20039;-68
2023/12/29 04:31:57;;;;;;;7.38;1.33;;;11.50;99.90;;;;;;5114175;28;20036;-68
2023/12/29 04:34:22;;;;;;;4.47;1.33;;;11.50;99.90;;;;;;5114394;28;20044;-68
2023/12/29 04:36:48;;;;;;;4.35;0.88;;;11.50;99.90;;;;;;5114157;28;20037;-68
2023/12/29 04:39:13;;;;;;;4.28;1.30;;;11.50;99.90;;;;;;5114236;28;20024;-67
2023/12/29 04:41:39;;;;;;;11.52;1.70;;;11.50;99.90;;;;;;5114090;28;20032;-67
2023/12/29 04:44:05;;;;;;;8.20;1.60;;;11.40;99.90;;;;;;5113834;28;20046;-67
2023/12/29 04:46:30;;;;;;;5.28;1.30;;;11.40;99.90;;;;;;5112938;28;20032;-69
2023/12/29 04:48:56;;;;;;;6.32;1.63;;;11.40;99.90;;;;;;5113984;28;20036;-67
2023/12/29 04:51:21;;;;;;;6.18;1.30;;;11.40;99.90;;;;;;5114054;28;20050;-68
2023/12/29 04:53:47;;;;;;;5.65;1.13;;;11.50;99.90;;;;;;5113925;28;20510;-68
2023/12/29 04:56:12;;;;;;;12.15;1.52;;;11.50;99.90;;;;;;5113921;28;20054;-67
2023/12/29 04:58:38;;;;;;;7.97;1.90;;;11.40;99.90;;;;;;5113723;28;20032;-68
2023/12/29 05:01:04;;;;;;;9.63;2.03;;;11.40;99.90;;;;;;5113637;28;20035;-68
2023/12/29 05:03:30;;;;;;;6.63;1.10;;;11.40;99.90;;;;;;5113584;28;20066;-68
2023/12/29 05:05:55;;;;;;;10.27;1.60;;;11.40;99.90;;;;;;5113653;28;20065;-68
2023/12/29 05:08:21;;;;;;;4.47;1.20;;;11.40;99.90;;;;;;5113628;28;20034;-67
2023/12/29 05:10:47;;;;;;;6.65;1.25;;;11.40;99.90;;;;;;5113495;28;20024;-68
2023/12/29 05:13:12;;;;;;;5.70;1.40;;;11.40;99.90;;;;;;5113512;28;20100;-67
2023/12/29 05:15:38;;;;;;;7.80;1.50;;;11.40;99.90;;;;;;5113407;28;20042;-67
2023/12/29 05:18:03;;;;;;;4.75;1.40;;;11.40;99.90;;;;;;5113394;28;20028;-68
2023/12/29 05:20:29;;;;;;;7.72;1.42;;;11.40;99.90;;;;;;5113357;28;20032;-67
2023/12/29 05:22:55;;;;;;;10.48;1.75;;;11.40;99.90;;;;;;5113420;28;20081;-67
2023/12/29 05:25:23;;;;;;;4.05;0.95;;;11.40;99.90;;;;;;5113365;28;20016;-67
2023/12/29 05:27:48;;;;;;;6.50;1.35;;;11.40;99.90;;;;;;5113166;28;20111;-67
2023/12/29 05:30:14;;;;;;;6.75;1.38;;;11.40;99.90;;;;;;5113220;28;20024;-68
2023/12/29 05:32:40;;;;;;;11.65;2.10;;;11.30;99.90;;;;;;5112958;28;20456;-67
2023/12/29 05:35:05;;;;;;;7.38;1.15;;;11.40;99.90;;;;;;5113123;28;20081;-67
2023/12/29 05:37:31;;;;;;;10.65;1.35;;;11.40;99.90;;;;;;5113145;28;20024;-68
2023/12/29 05:39:57;;;;;;;4.10;1.10;;;11.30;99.90;;;;;;5113142;28;20028;-68
2023/12/29 05:42:22;;;;;;;11.52;1.73;;;11.30;99.90;;;;;;5112967;28;20044;-68
2023/12/29 05:44:48;;;;;;;8.52;1.60;;;11.30;99.90;;;;;;5112929;28;20032;-67
2023/12/29 05:47:14;;;;;;;6.20;1.55;;;11.30;99.90;;;;;;5111967;28;20021;-69
2023/12/29 05:49:39;;;;;;;6.15;1.60;;;11.30;99.90;;;;;;5112952;28;20492;-68
2023/12/29 05:52:06;;;;;;;8.82;2.15;;;11.30;99.90;;;;;;5112872;28;20027;-68
2023/12/29 05:54:31;;;;;;;7.80;1.63;;;11.30;99.90;;;;;;5112871;28;20016;-68
2023/12/29 05:56:57;;;;;;;5.38;1.00;;;11.30;99.90;;;;;;5112284;28;20434;-67
2023/12/29 05:59:23;;;;;;;9.38;1.20;;;11.30;99.90;;;;;;5112834;28;20020;-69
2023/12/29 06:01:49;;;;;;;3.50;1.20;;;11.30;99.90;;;;;;5112439;28;20052;-70
2023/12/29 06:04:14;;;;;;;6.53;1.23;;;11.30;99.90;;;;;;5112454;28;20047;-68
2023/12/29 06:06:42;;;;;;;6.43;1.25;;;11.30;99.90;;;;;;5112611;28;20036;-67
2023/12/29 06:09:10;;;;;;;6.53;1.30;;;11.30;99.90;;;;;;5112711;28;20023;-67
2023/12/29 06:11:36;;;;;;;6.80;1.58;;;11.30;99.90;;;;;;5112577;28;20042;-67
2023/12/29 06:14:01;;;;;;;12.38;1.95;;;11.30;99.90;;;;;;5112635;28;20043;-68
2023/12/29 06:16:27;;;;;;;10.40;1.63;;;11.30;99.90;;;;;;5112541;28;20055;-67
2023/12/29 06:18:53;;;;;;;8.50;1.42;;;11.30;99.90;;;;;;5112555;28;20024;-68
2023/12/29 06:21:19;;;;;;;2.97;0.93;;;11.40;99.90;;;;;;5112359;28;20046;-68
2023/12/29 06:23:45;;;;;;;6.88;1.63;;;11.40;99.90;;;;;;5112391;28;20076;-67
2023/12/29 06:26:17;;;;;;;4.50;1.10;;;11.40;99.90;;;;;;5112259;28;20024;-68
2023/12/29 06:28:44;;;;;;;6.03;1.15;;;11.30;99.90;;;;;;5112482;28;20029;-68
2023/12/29 06:31:10;;;;;;;3.88;1.23;;;11.30;99.90;;;;;;5112232;28;20024;-67
2023/12/29 06:33:36;;;;;;;5.07;1.13;;;11.40;99.90;;;;;;5112414;28;20027;-68
2023/12/29 06:36:01;;;;;;;6.22;1.45;;;11.30;99.90;;;;;;5112351;28;20028;-67
2023/12/29 06:38:27;;;;;;;5.00;1.17;;;11.40;99.90;;;;;;5112324;28;20028;-67
2023/12/29 06:40:52;;;;;;;3.17;1.00;;;11.30;99.90;;;;;;5112305;28;20028;-67
2023/12/29 06:43:18;;;;;;;6.35;1.27;;;11.30;99.90;;;;;;5112286;28;20462;-67
2023/12/29 06:45:44;;;;;;;11.40;1.58;;;11.20;99.90;;;;;;5111416;28;20040;-67
2023/12/29 06:48:09;;;;;;;6.18;1.45;;;11.10;99.90;;;;;;5111827;28;20052;-69
2023/12/29 06:50:36;;;;;;;8.20;1.58;;;11.10;99.90;;;;;;5110893;28;20043;-67
2023/12/29 06:53:03;;;;;;;4.47;1.33;;;11.10;99.90;;;;;;5111850;28;20031;-68
2023/12/29 06:55:28;;;;;;;5.32;1.45;;;11.10;99.90;;;;;;5110363;28;20024;-67
2023/12/29 06:57:54;;;;;;;9.73;1.60;;;11.00;99.90;;;;;;5111148;28;20028;-67
2023/12/29 07:00:20;;;;;;;7.93;1.17;;;11.10;99.90;;;;;;5112223;28;20023;-67
2023/12/29 07:02:45;;;;;;;5.40;1.23;;;11.10;99.90;;;;;;5111013;28;20460;-67
2023/12/29 07:05:11;;;;;;;4.25;1.30;;;11.10;99.90;;;;;;5111710;28;20123;-67
2023/12/29 07:07:37;;;;;;;10.43;1.58;;;11.10;99.90;;;;;;5111925;28;20080;-67
2023/12/29 07:10:04;;;;;;;5.93;1.52;;;11.10;99.90;;;;;;5115137;28;20036;-67
2023/12/29 07:12:29;;;;;;;5.57;0.98;;;11.00;99.90;;;;;;5115485;28;20020;-67
2023/12/29 07:14:55;;;;;;;8.00;1.48;;;11.10;99.90;;;;;;5115353;28;20059;-68
2023/12/29 07:17:21;;;;;;;5.85;1.10;;;11.10;99.90;;;;;;5115592;28;20032;-69
2023/12/29 07:19:46;;;;;;;3.33;0.85;;;11.10;99.90;;;;;;5115404;28;20032;-68
2023/12/29 07:22:12;;;;;;;5.60;1.10;;;11.10;99.90;;;;;;5115465;28;20043;-67
2023/12/29 07:24:38;;;;;;;8.57;1.52;;;11.10;99.90;;;;;;5115116;28;20040;-67
2023/12/29 07:27:04;;;;;;;3.97;1.58;;;11.10;99.90;;;;;;5115216;28;20016;-67
2023/12/29 07:29:30;;;;;;;8.68;1.45;;;11.10;99.90;;;;;;5115432;28;20016;-67
2023/12/29 07:31:56;;;;;;;5.22;1.05;;;11.20;99.90;;;;;;5115015;28;20027;-67
2023/12/29 07:34:22;;;;;;;5.68;1.30;;;11.20;99.90;;;;;;5115021;28;20454;-67
2023/12/29 07:36:48;;;;;;;3.03;1.13;;;11.20;99.90;;;;;;5114779;28;20089;-67
2023/12/29 07:39:13;;;;;;;4.70;1.08;;;11.20;99.90;;;;;;5114902;28;20020;-67
2023/12/29 07:41:41;;;;;;;4.07;1.08;;;11.20;99.90;;;;;;5114987;28;20035;-68
2023/12/29 07:44:07;;;;;;;4.10;1.15;;;11.30;99.90;;;;;;5114988;28;20016;-67
2023/12/29 07:46:33;;;;;;;2.55;0.90;;;11.30;99.90;;;;;;5114705;28;20028;-68
2023/12/29 07:48:59;;;;;;;6.00;1.02;;;11.30;99.90;;;;;;5114860;28;20057;-68
2023/12/29 07:51:24;;;;;;;5.55;1.20;;;11.30;99.90;;;;;;5114935;28;20043;-67
2023/12/29 07:53:50;;;;;;;7.30;1.40;;;11.30;99.90;;;;;;5114666;28;20032;-68
2023/12/29 07:56:16;;;;;;;4.80;1.20;;;11.30;99.90;;;;;;5114886;28;20032;-67
2023/12/29 07:58:41;;;;;;;4.38;0.90;;;11.30;99.90;;;;;;5114275;28;20035;-69
2023/12/29 08:01:08;;;;;;;4.07;1.65;;;11.30;99.90;;;;;;5114494;28;20028;-68
2023/12/29 08:03:34;;;;;;;5.88;1.20;;;11.30;99.90;;;;;;5114257;28;20021;-67
2023/12/29 08:05:59;;;;;;;3.72;0.73;;;11.30;99.90;;;;;;5114505;28;20040;-69
2023/12/29 08:08:25;;;;;;;3.15;0.90;;;11.30;99.90;;;;;;5114442;28;20032;-67
2023/12/29 08:10:50;;;;;;;1.73;0.65;;;11.40;99.90;;;;;;5114236;28;20012;-68
2023/12/29 08:13:16;;;;;;;6.60;1.13;;;11.40;99.90;;;;;;5114720;28;20028;-67
2023/12/29 08:15:42;;;;;;;5.55;1.00;;;11.40;99.90;;;;;;5114446;28;20028;-67
2023/12/29 08:18:09;;;;;;;3.35;0.75;;;11.40;99.90;;;;;;5114643;28;20027;-67
2023/12/29 08:20:34;;;;;;;3.60;0.90;;;11.40;99.90;;;;;;5114118;28;20020;-67
2023/12/29 08:23:02;;;;;;;2.88;0.55;;;11.40;99.90;;;;;;5114463;28;20401;-67
2023/12/29 08:25:28;;;;;;;5.68;1.10;;;11.40;99.90;;;;;;5114486;28;20099;-68
2023/12/29 08:27:55;;;;;;;5.28;1.38;;;11.40;99.90;;;;;;5114412;28;20035;-68
2023/12/29 08:30:21;;;;;;;3.88;0.95;;;11.40;99.90;;;;;;5114430;28;20040;-68
2023/12/29 08:32:46;;;;;;;4.22;0.85;;;11.50;99.90;;;;;;5114177;28;20031;-68
2023/12/29 08:35:12;;;;;;;1.15;0.63;;;11.50;99.90;;;;;;5114399;28;20024;-67
2023/12/29 08:37:37;;;;;;;3.25;0.90;;;11.50;99.90;;;;;;5114253;28;20097;-67
2023/12/29 08:40:04;;;;;;;5.35;0.57;;;11.50;99.90;;;;;;5114320;28;20031;-67
2023/12/29 08:42:29;;;;;;;4.65;0.93;;;11.50;99.90;;;;;;5114226;28;20020;-67
2023/12/29 08:44:55;;;;;;;8.18;1.50;;;11.50;99.90;;;;;;5114091;28;20024;-67
2023/12/29 08:47:21;;;;;;;3.67;0.80;;;11.50;99.90;;;;;;5114241;28;20434;-67
2023/12/29 08:49:48;;;;;;;3.17;0.40;;;11.50;99.90;;;;;;5113993;28;20025;-68
2023/12/29 08:52:14;;;;;;;1.23;0.40;;;11.50;99.90;;;;;;5113954;28;20016;-67
2023/12/29 08:54:40;;;;;;;1.20;0.65;;;11.50;99.90;;;;;;5113995;28;20031;-67
2023/12/29 08:57:06;;;;;;;1.52;0.50;;;11.50;99.90;;;;;;5113808;28;20079;-67
2023/12/29 08:59:32;;;;;;;2.72;0.60;;;11.50;99.90;;;;;;5113844;28;20032;-69
2023/12/29 09:01:58;;;;;;;2.58;0.77;;;11.50;99.90;;;;;;5112494;28;20024;-67
2023/12/29 09:04:23;;;;;;;1.05;0.40;;;11.50;99.90;;;;;;5113578;28;20108;-68
2023/12/29 09:06:49;;;;;;;1.33;0.50;;;11.50;99.90;;;;;;5113557;28;20047;-68
2023/12/29 09:09:15;;;;;;;1.75;0.52;;;11.50;99.90;;;;;;5113670;28;20024;-67
2023/12/29 09:11:41;;;;;;;2.05;0.63;;;11.60;99.90;;;;;;5113541;28;20024;-67
2023/12/29 09:14:07;;;;;;;2.97;0.80;;;11.60;99.90;;;;;;5113547;28;20028;-69
2023/12/29 09:16:35;;;;;;;1.63;0.80;;;11.60;99.90;;;;;;5113533;28;20032;-67
2023/12/29 09:19:01;;;;;;;0.98;0.35;;;11.60;99.90;;;;;;5113387;28;20024;-67
2023/12/29 09:21:27;;;;;;;2.00;0.60;;;11.60;99.90;;;;;;5113321;28;20043;-68
2023/12/29 09:23:53;;;;;;;0.57;0.30;;;11.50;99.90;;;;;;5113463;28;20034;-67
2023/12/29 09:26:18;;;;;;;1.30;0.75;;;11.60;99.90;;;;;;5113287;28;20038;-68
2023/12/29 09:28:44;;;;;;;3.88;0.55;;;11.50;99.90;;;;;;5113298;28;20050;-68
2023/12/29 09:31:11;;;;;;;2.38;0.63;;;11.50;99.90;;;;;;5112472;28;20028;-68
2023/12/29 09:33:36;;;;;;;1.63;0.50;;;11.60;99.90;;;;;;5112028;28;20024;-68
2023/12/29 09:36:03;;;;;;;3.88;0.75;;;11.60;99.90;;;;;;5113165;28;20044;-67
2023/12/29 09:38:28;;;;;;;1.75;0.47;;;11.50;99.90;;;;;;5113206;28;20024;-69
2023/12/29 09:40:58;;;;;;;1.42;0.50;;;11.50;99.90;;;;;;5113271;28;20073;-68
2023/12/29 09:43:25;;;;;;;1.38;0.40;;;11.40;99.90;;;;;;5113009;28;20057;-68
2023/12/29 09:45:52;;;;;;;3.72;0.60;;;11.20;99.90;;;;;;5112887;28;20062;-68
2023/12/29 09:48:19;;;;;;;2.45;0.55;;;11.20;99.90;;;;;;5112871;28;20031;-68
2023/12/29 09:50:46;;;;;;;2.05;0.50;;;11.20;99.90;;;;;;5112980;28;20016;-67
2023/12/29 09:53:13;;;;;;;1.90;0.52;;;11.20;99.90;;;;;;5112983;28;20016;-67
2023/12/29 09:55:41;;;;;;;2.58;0.50;;;11.20;99.90;;;;;;5112868;28;20032;-67
2023/12/29 09:58:08;;;;;;;0.80;0.40;;;11.10;99.90;;;;;;5112687;28;20032;-68
2023/12/29 10:00:34;;;;;;;3.00;0.45;;;11.20;99.90;;;;;;5112567;28;20500;-68
2023/12/29 10:03:00;;;;;;;2.35;0.52;;;11.20;99.90;;;;;;5111590;28;20051;-68
2023/12/29 10:05:26;;;;;;;2.78;0.60;;;11.20;99.90;;;;;;5112537;28;20091;-68
2023/12/29 10:07:53;;;;;;;2.05;0.50;;;11.20;99.90;;;;;;5112690;28;20027;-68
2023/12/29 10:10:23;;;;;;;2.25;0.63;;;11.30;99.90;;;;;;5112717;28;20023;-67
2023/12/29 10:12:49;;;;;;;3.65;0.70;;;11.30;99.90;;;;;;5112643;28;20046;-68
2023/12/29 10:15:48;;;;;;;1.25;0.52;;;11.30;99.90;;;;;;5112570;28;20083;-68
2023/12/29 10:18:32;;;;;;;2.22;0.65;;;11.30;99.90;;;;;;5112638;28;20020;-68
2023/12/29 10:21:19;;;;;;;1.98;0.95;;;11.30;99.90;;;;;;5112521;28;20068;-67
2023/12/29 10:24:01;;;;;;;1.02;0.60;;;11.30;99.90;;;;;;5112525;28;20024;-67
2023/12/29 10:26:27;;;;;;;0.87;0.33;;;11.40;99.90;;;;;;5112390;28;20031;-67
2023/12/29 10:28:52;;;;;;;2.47;0.73;;;11.40;99.90;;;;;;5112373;28;20399;-68
2023/12/29 10:31:18;;;;;;;1.50;0.50;;;11.40;99.90;;;;;;5112230;28;20031;-67
2023/12/29 10:33:44;;;;;;;3.65;1.20;;;11.40;99.90;;;;;;5112436;28;20032;-67
2023/12/29 10:36:10;;;;;;;1.48;0.80;;;11.40;99.90;;;;;;5112502;28;20024;-68
2023/12/29 10:38:39;;;;;;;5.55;2.33;;;11.50;99.90;;;;;;5112343;28;20024;-68
2023/12/29 10:41:15;;;;;;;2.35;1.25;;;11.50;99.90;;;;;;5112279;28;20204;-67
2023/12/29 10:43:42;;;;;;;1.35;0.68;;;11.50;99.90;;;;;;5115260;28;20054;-68
2023/12/29 10:46:09;;;;;;;1.95;0.85;;;11.50;99.90;;;;;;5116292;28;20027;-67
2023/12/29 10:48:35;;;;;;;0.47;0.40;;;11.50;99.90;;;;;;5116376;28;20016;-68
2023/12/29 10:51:03;;;;;;;3.15;1.95;;;11.50;99.90;;;;;;5116336;28;20072;-68
2023/12/29 10:53:33;;;;;;;1.05;0.90;;;11.50;99.90;;;;;;5116328;28;20027;-67
2023/12/29 10:55:58;;;;;;;1.25;0.68;;;11.60;99.90;;;;;;5115315;28;20048;-67
2023/12/29 10:58:29;;;;;;;2.40;0.60;;;11.60;99.90;;;;;;5116089;28;20044;-67
2023/12/29 11:00:55;;;;;;;0.93;0.38;;;11.60;99.90;;;;;;5116010;28;20024;-69
2023/12/29 11:03:21;;;;;;;1.98;0.52;;;11.60;99.90;;;;;;5115876;28;20040;-67
2023/12/29 11:05:47;;;;;;;2.35;0.70;;;11.60;99.90;;;;;;5116050;28;20035;-68
2023/12/29 11:08:20;;;;;;;2.28;0.98;;;11.60;99.90;;;;;;5116053;28;20031;-69
2023/12/29 11:10:48;;;;;;;1.95;0.60;;;11.70;99.90;;;;;;5114907;28;20028;-68
2023/12/29 11:13:14;;;;;;;2.22;0.50;;;11.60;99.90;;;;;;5115898;28;20027;-67
2023/12/29 11:15:46;;;;;;;1.05;0.70;;;11.60;99.90;;;;;;5115819;28;20032;-67
2023/12/29 11:18:21;;;;;;;4.80;0.80;;;11.60;99.90;;;;;;5115877;28;20027;-67
2023/12/29 11:20:46;;;;;;;3.63;1.20;;;11.60;99.90;;;;;;5115651;28;20026;-68
2023/12/29 11:23:15;;;;;;;1.70;0.80;;;11.60;99.90;;;;;;5115682;28;20490;-67
2023/12/29 11:25:46;;;;;;;5.40;1.45;;;11.60;99.90;;;;;;5115694;28;20051;-68
2023/12/29 11:28:12;;;;;;;1.92;1.20;;;11.60;99.90;;;;;;5115515;28;20035;-68
2023/12/29 11:30:39;;;;;;;3.10;1.50;;;11.60;99.90;;;;;;5115333;28;20024;-67
2023/12/29 11:33:18;;;;;;;5.97;1.23;;;11.70;99.90;;;;;;5115515;28;20024;-69
2023/12/29 11:35:54;;;;;;;4.63;2.03;;;11.70;99.90;;;;;;5115509;28;20024;-68
2023/12/29 11:38:47;;;;;;;3.15;1.38;;;11.70;99.90;;;;;;5115493;28;20020;-70
2023/12/29 11:41:19;;;;;;;5.97;1.60;;;11.80;99.90;;;;;;5115473;28;20031;-68
2023/12/29 11:43:44;;;;;;;6.60;1.47;;;11.80;99.90;;;;;;5115405;28;20028;-69
2023/12/29 11:46:40;;;;;;;3.47;1.27;;;11.80;99.90;;;;;;5115303;28;20358;-68
2023/12/29 11:49:06;;;;;;;3.78;1.52;;;11.90;99.90;;;;;;5115362;28;20032;-65
2023/12/29 11:51:33;;;;;;;3.85;2.10;;;11.90;99.90;;;;;;5115307;28;20102;-67
2023/12/29 11:54:02;;;;;;;3.10;1.60;;;11.90;99.90;;;;;;5113469;28;20043;-67
2023/12/29 11:56:36;;;;;;;5.82;1.42;;;12.00;99.90;;;;;;5115249;28;20043;-68
2023/12/29 11:59:23;;;;;;;5.85;1.30;;;12.00;99.90;;;;;;5115058;28;20028;-67
2023/12/29 12:01:52;;;;;;;7.55;2.13;;;12.10;99.90;;;;;;5114738;28;20050;-68
2023/12/29 12:04:47;;;;;;;4.40;1.75;;;12.00;99.90;;;;;;5114812;28;20108;-67
2023/12/29 12:07:22;;;;;;;5.38;1.10;;;12.10;99.90;;;;;;5101759;28;20044;-67
2023/12/29 12:09:51;;;;;;;4.15;1.27;;;12.10;99.90;;;;;;5114875;28;20024;-68
2023/12/29 12:12:43;;;;;;;3.92;1.20;;;12.10;99.90;;;;;;5114794;28;20013;-66
2023/12/29 12:15:32;;;;;;;6.80;1.45;;;12.10;99.90;;;;;;5114736;28;20126;-67
2023/12/29 12:17:59;;;;;;;5.75;1.23;;;12.10;99.90;;;;;;5114804;28;20294;-67
2023/12/29 12:20:25;;;;;;;3.55;1.38;;;12.10;99.90;;;;;;5114561;28;20028;-66
2023/12/29 12:23:03;;;;;;;4.40;1.27;;;12.10;99.90;;;;;;5114588;28;20013;-68
2023/12/29 12:25:30;;;;;;;2.50;0.90;;;12.10;99.90;;;;;;5114488;28;20028;-67
2023/12/29 12:27:57;;;;;;;1.55;0.70;;;12.10;99.90;;;;;;5113410;28;20028;-67
2023/12/29 12:30:22;;;;;;;1.58;0.68;;;12.00;99.90;;;;;;5114507;28;20083;-67
2023/12/29 12:32:58;;;;;;;3.20;0.75;;;12.00;99.90;;;;;;5114157;28;20309;-68
2023/12/29 12:35:26;;;;;;;5.03;0.93;;;12.00;99.90;;;;;;5114406;28;20036;-67
2023/12/29 12:38:10;;;;;;;2.75;0.98;;;12.00;99.90;;;;;;5114288;28;20043;-66
2023/12/29 12:40:37;;;;;;;2.53;0.65;;;11.90;99.90;;;;;;5114281;28;20027;-69
2023/12/29 12:43:03;;;;;;;2.67;1.10;;;11.90;99.90;;;;;;5114202;28;20107;-68
2023/12/29 12:45:33;;;;;;;2.30;0.77;;;11.80;99.90;;;;;;5114019;28;20028;-68